Time;durP1;ratioP1;P1;durP2;ratioP2;P2;SDS_P1;SDS_P2;PMS_P1;PMS_P2;Temp;Humidity;BMP_temperature;BMP_pressure;BME280_temperature;BME280_humidity;BME280_pressure;Samples;Min_cycle;Max_cycle;Signal;HPM_P1;HPM_P2
2021/11/14 00:00:29;;;;;;;19.50;10.20;;;;;;;4.88;77.32;98915.64;215556;1319;24417;-77
2021/11/14 00:05:33;;;;;;;18.90;10.90;;;;;;;4.95;77.21;98920.76;215737;1310;22605;-76
2021/11/14 00:10:45;;;;;;;16.80;9.80;;;;;;;4.99;77.14;98918.84;215423;1319;25131;-74
2021/11/14 00:16:04;;;;;;;14.90;9.40;;;;;;;4.97;76.85;98921.20;216006;1317;22605;-76
2021/11/14 00:21:09;;;;;;;15.20;9.20;;;;;;;4.94;76.99;98918.73;215934;1317;22782;-76
2021/11/14 00:26:12;;;;;;;15.80;9.70;;;;;;;4.94;76.88;98916.61;215904;1314;22742;-76
2021/11/14 00:31:19;;;;;;;14.30;8.60;;;;;;;4.93;76.88;98915.01;215483;1319;24253;-75
2021/11/14 00:36:25;;;;;;;13.00;8.50;;;;;;;4.93;77.11;98917.07;215978;1309;22717;-75
2021/11/14 00:41:28;;;;;;;15.40;8.70;;;;;;;4.94;76.98;98916.14;216012;1319;26395;-75
2021/11/14 00:46:31;;;;;;;15.60;9.60;;;;;;;4.94;77.03;98918.30;215890;1317;22711;-76
2021/11/14 00:51:36;;;;;;;15.70;9.80;;;;;;;4.91;76.91;98918.06;216280;1317;25243;-76
2021/11/14 00:56:59;;;;;;;12.50;8.00;;;;;;;4.91;76.73;98920.39;216184;1315;22508;-76
2021/11/14 01:02:01;;;;;;;12.30;7.80;;;;;;;4.87;76.67;98923.48;216035;1317;24439;-76
2021/11/14 01:07:04;;;;;;;13.00;8.30;;;;;;;4.87;76.74;98925.86;216491;1310;22582;-76
2021/11/14 01:12:27;;;;;;;15.10;8.50;;;;;;;4.88;76.85;98926.41;216072;1314;24260;-76
2021/11/14 01:17:31;;;;;;;14.50;9.70;;;;;;;4.91;77.28;98924.96;216171;1317;22585;-75
2021/11/14 01:22:33;;;;;;;14.00;9.00;;;;;;;4.94;77.10;98926.70;216090;1316;24269;-75
2021/11/14 01:27:39;;;;;;;15.00;9.20;;;;;;;4.97;76.97;98932.85;215945;1316;25392;-76
2021/11/14 01:32:42;;;;;;;13.60;8.40;;;;;;;4.97;77.27;98931.77;216304;1315;22657;-76
2021/11/14 01:37:46;;;;;;;13.40;8.70;;;;;;;4.97;77.05;98933.05;215890;1316;24375;-76
2021/11/14 01:42:50;;;;;;;14.60;9.70;;;;;;;5.01;77.25;98935.43;216188;1316;22642;-76
2021/11/14 01:47:53;;;;;;;15.50;9.10;;;;;;;5.04;77.15;98934.45;216414;1315;24295;-76
2021/11/14 01:52:57;;;;;;;13.10;9.30;;;;;;;5.04;76.95;98928.03;216053;1316;23758;-76
2021/11/14 01:58:02;;;;;;;13.10;8.60;;;;;;;5.05;77.10;98928.63;216208;1313;22637;-76
2021/11/14 02:03:05;;;;;;;12.70;8.70;;;;;;;5.05;77.29;98923.96;215975;1316;22518;-76
2021/11/14 02:08:22;;;;;;;13.70;8.90;;;;;;;5.02;76.95;98924.70;216005;1317;22644;-75
2021/11/14 02:13:27;;;;;;;10.90;8.20;;;;;;;4.99;76.94;98931.53;216038;1316;25277;-76
2021/11/14 02:18:33;;;;;;;19.10;10.10;;;;;;;4.98;77.15;98941.03;215527;1316;22583;-76
2021/11/14 02:23:37;;;;;;;13.60;8.80;;;;;;;4.96;76.97;98946.75;216030;1316;25021;-76
2021/11/14 02:28:41;;;;;;;13.80;8.70;;;;;;;4.93;76.90;98948.98;216095;1316;24440;-75
2021/11/14 02:33:44;;;;;;;11.90;8.10;;;;;;;4.89;77.12;98951.48;216185;1313;22680;-76
2021/11/14 02:38:46;;;;;;;12.50;8.10;;;;;;;4.84;77.22;98958.33;215927;1316;25565;-76
2021/11/14 02:43:51;;;;;;;10.80;7.40;;;;;;;4.78;77.23;98959.89;215946;1315;22570;-76
2021/11/14 02:48:54;;;;;;;11.30;7.90;;;;;;;4.72;77.38;98958.05;216198;1316;24237;-76
2021/11/14 02:54:07;;;;;;;9.60;7.10;;;;;;;4.66;77.60;98956.76;216288;1317;25122;-75
2021/11/14 02:59:25;;;;;;;14.30;8.10;;;;;;;4.66;77.75;98962.52;216045;1316;24228;-75
2021/11/14 03:04:29;;;;;;;13.40;8.60;;;;;;;4.69;78.05;98966.24;215978;1315;22813;-77
2021/11/14 03:09:34;;;;;;;13.50;8.90;;;;;;;4.73;77.92;98969.11;216252;1316;22733;-76
2021/11/14 03:14:36;;;;;;;12.90;8.10;;;;;;;4.77;78.21;98972.35;215975;1316;22648;-76
2021/11/14 03:19:39;;;;;;;12.00;7.20;;;;;;;4.76;78.04;98974.04;215730;1316;22707;-76
2021/11/14 03:24:41;;;;;;;13.70;8.80;;;;;;;4.74;78.09;98973.48;215713;1317;25444;-76
2021/11/14 03:29:45;;;;;;;12.60;8.30;;;;;;;4.69;77.94;98979.25;215746;1316;24310;-76
2021/11/14 03:34:48;;;;;;;13.80;9.10;;;;;;;4.65;78.37;98987.37;215763;1316;24251;-75
2021/11/14 03:39:53;;;;;;;13.30;8.00;;;;;;;4.65;78.57;98989.44;215741;1316;22568;-76
2021/11/14 03:44:56;;;;;;;12.00;8.20;;;;;;;4.69;78.58;98992.20;215948;1318;22871;-76
2021/11/14 03:49:59;;;;;;;11.90;8.10;;;;;;;4.75;78.81;98989.34;215848;1313;25073;-76
2021/11/14 03:55:03;;;;;;;14.00;8.80;;;;;;;4.83;78.90;98987.92;216017;1316;24292;-76
2021/11/14 04:00:13;;;;;;;15.40;9.00;;;;;;;4.88;78.96;98987.21;215911;1316;22597;-75
2021/11/14 04:05:17;;;;;;;15.00;9.40;;;;;;;4.94;78.90;98987.54;215838;1314;24273;-76
2021/11/14 04:10:20;;;;;;;16.50;11.00;;;;;;;4.98;78.74;98988.34;216274;1314;25265;-76
2021/11/14 04:15:24;;;;;;;18.10;12.10;;;;;;;5.02;78.83;98989.77;215845;1316;25508;-76
2021/11/14 04:20:29;;;;;;;20.20;13.00;;;;;;;5.03;78.91;98992.81;215710;1316;24358;-76
2021/11/14 04:25:33;;;;;;;23.10;13.10;;;;;;;5.02;78.79;98994.76;216290;1316;22618;-76
2021/11/14 04:30:35;;;;;;;22.70;13.10;;;;;;;5.01;78.68;98998.14;216212;1316;25332;-75
2021/11/14 04:35:51;;;;;;;23.20;14.10;;;;;;;5.00;78.89;98999.19;215917;1315;24366;-76
2021/11/14 04:40:56;;;;;;;23.10;12.70;;;;;;;5.02;78.93;99003.95;215614;1316;24219;-76
2021/11/14 04:46:00;;;;;;;20.80;12.70;;;;;;;5.03;79.16;99003.81;216252;1315;24239;-75
2021/11/14 04:51:02;;;;;;;22.60;13.00;;;;;;;5.02;78.96;99009.58;216215;1317;24452;-75
2021/11/14 04:56:05;;;;;;;24.10;13.00;;;;;;;5.02;78.83;99011.59;215836;1309;24513;-75
2021/11/14 05:01:08;;;;;;;23.30;12.60;;;;;;;5.04;78.96;99013.42;215900;1318;25079;-75
2021/11/14 05:06:13;;;;;;;20.00;13.30;;;;;;;5.03;78.86;99017.19;215490;1318;24273;-75
2021/11/14 05:11:16;;;;;;;22.40;13.20;;;;;;;4.99;78.58;99018.77;215060;1317;160797;-76
2021/11/14 05:16:26;;;;;;;20.80;13.50;;;;;;;4.93;78.73;99022.80;215690;1319;24263;-77
2021/11/14 05:21:44;;;;;;;20.60;13.00;;;;;;;4.92;78.78;99026.02;215246;1318;22579;-76
2021/11/14 05:26:47;;;;;;;20.00;12.30;;;;;;;4.95;78.79;99028.44;216401;1310;24254;-76
2021/11/14 05:31:50;;;;;;;20.90;11.70;;;;;;;4.98;78.93;99034.75;215891;1318;24315;-76
2021/11/14 05:36:53;;;;;;;20.50;12.30;;;;;;;5.01;78.95;99040.37;216087;1318;22679;-76
2021/11/14 05:41:55;;;;;;;20.30;11.90;;;;;;;5.03;78.83;99043.73;215989;1317;24298;-76
2021/11/14 05:47:02;;;;;;;18.50;11.60;;;;;;;5.04;78.95;99050.66;216071;1318;24241;-76
2021/11/14 05:52:05;;;;;;;17.50;11.40;;;;;;;4.99;78.59;99055.58;215721;1310;22815;-76
2021/11/14 05:57:11;;;;;;;18.70;11.90;;;;;;;4.92;78.94;99062.45;215279;1313;24209;-76
2021/11/14 06:02:23;;;;;;;16.40;11.20;;;;;;;4.93;79.19;99072.85;215660;1313;24244;-76
2021/11/14 06:07:29;;;;;;;16.70;10.40;;;;;;;4.94;79.03;99084.23;216119;1318;24282;-75
2021/11/14 06:12:33;;;;;;;20.90;12.00;;;;;;;4.94;78.99;99090.34;215647;1319;25389;-76
2021/11/14 06:17:37;;;;;;;19.10;12.10;;;;;;;4.92;78.80;99097.31;215430;1319;22619;-76
2021/11/14 06:22:40;;;;;;;18.20;11.40;;;;;;;4.89;78.76;99105.24;215789;1310;22621;-76
2021/11/14 06:27:43;;;;;;;18.30;11.90;;;;;;;4.87;78.96;99116.77;215856;1310;22545;-76
2021/11/14 06:32:54;;;;;;;19.20;12.00;;;;;;;4.91;79.23;99121.30;215379;1318;22584;-76
2021/11/14 06:38:02;;;;;;;19.00;12.70;;;;;;;4.91;79.07;99128.21;215609;1314;22669;-76
2021/11/14 06:43:04;;;;;;;19.50;11.60;;;;;;;4.92;79.01;99136.71;216083;1316;22592;-76
2021/11/14 06:48:07;;;;;;;15.50;10.60;;;;;;;4.93;79.01;99146.40;215699;1317;25413;-76
2021/11/14 06:53:15;;;;;;;22.40;12.60;;;;;;;4.90;78.97;99148.89;216091;1315;24364;-75
2021/11/14 06:58:18;;;;;;;18.40;11.50;;;;;;;4.85;79.33;99154.50;215586;1317;22567;-75
2021/11/14 07:03:24;;;;;;;17.80;11.40;;;;;;;4.84;79.16;99161.17;215950;1313;24263;-76
2021/11/14 07:08:34;;;;;;;15.90;10.60;;;;;;;4.83;79.03;99166.09;216215;1314;24348;-76
2021/11/14 07:13:38;;;;;;;17.80;11.30;;;;;;;4.81;79.17;99173.70;215753;1317;24263;-76
2021/11/14 07:18:40;;;;;;;18.00;11.90;;;;;;;4.80;79.32;99178.05;215769;1316;23854;-75
2021/11/14 07:23:43;;;;;;;19.30;11.70;;;;;;;4.87;79.53;99173.27;215749;1319;24253;-76
2021/11/14 07:28:45;;;;;;;16.30;10.60;;;;;;;4.98;79.55;99171.44;216367;1310;24324;-75
2021/11/14 07:33:48;;;;;;;18.10;11.40;;;;;;;5.13;79.75;99174.91;216155;1319;22530;-77
2021/11/14 07:38:50;;;;;;;19.40;11.10;;;;;;;5.30;79.67;99177.98;215584;1316;24258;-76
2021/11/14 07:43:53;;;;;;;17.10;11.10;;;;;;;5.41;79.07;99177.17;215814;1314;24254;-76
2021/11/14 07:48:57;;;;;;;16.60;10.70;;;;;;;5.42;78.66;99181.23;215997;1317;24254;-77
2021/11/14 07:54:03;;;;;;;15.30;10.80;;;;;;;5.48;78.96;99185.77;216505;1314;25431;-77
2021/11/14 07:59:06;;;;;;;15.30;9.90;;;;;;;5.56;78.79;99185.19;216117;1309;24276;-77
2021/11/14 08:04:09;;;;;;;17.00;11.00;;;;;;;5.61;78.44;99190.63;215849;1310;24256;-76
2021/11/14 08:09:16;;;;;;;18.10;11.40;;;;;;;5.66;78.40;99187.91;216023;1316;25261;-75
2021/11/14 08:14:19;;;;;;;17.70;10.50;;;;;;;5.75;78.33;99192.39;215336;1316;25378;-75
2021/11/14 08:19:22;;;;;;;18.60;11.70;;;;;;;5.82;78.24;99192.23;215795;1317;22587;-76
2021/11/14 08:24:25;;;;;;;18.50;11.00;;;;;;;5.90;78.23;99196.46;215777;1313;24256;-76
2021/11/14 08:29:27;;;;;;;19.70;11.80;;;;;;;5.99;77.92;99196.89;215752;1318;24423;-76
2021/11/14 08:34:30;;;;;;;19.00;12.10;;;;;;;6.04;77.79;99202.84;216116;1309;22647;-77
2021/11/14 08:39:33;;;;;;;20.30;13.00;;;;;;;6.11;77.66;99203.88;215367;1316;22599;-77
2021/11/14 08:44:37;;;;;;;20.10;12.00;;;;;;;6.14;77.51;99213.59;215878;1310;24391;-76
2021/11/14 08:49:40;;;;;;;20.80;12.80;;;;;;;6.09;76.83;99217.38;215344;1319;25036;-76
2021/11/14 08:54:45;;;;;;;19.90;11.80;;;;;;;6.07;76.80;99219.58;215606;1314;24424;-76
2021/11/14 08:59:49;;;;;;;18.20;12.20;;;;;;;6.11;77.07;99222.07;216100;1310;22709;-76
2021/11/14 09:04:52;;;;;;;16.50;11.50;;;;;;;6.14;76.90;99224.25;215804;1314;22624;-77
2021/11/14 09:09:54;;;;;;;23.30;12.80;;;;;;;6.21;77.03;99229.48;215899;1315;26407;-76
2021/11/14 09:14:58;;;;;;;21.40;12.30;;;;;;;6.28;76.84;99231.55;215501;1319;22602;-76
2021/11/14 09:20:06;;;;;;;19.40;12.00;;;;;;;6.31;76.69;99238.23;215835;1314;24295;-77
2021/11/14 09:25:10;;;;;;;21.00;12.50;;;;;;;6.31;76.13;99237.80;215839;1310;25435;-77
2021/11/14 09:30:13;;;;;;;17.80;11.10;;;;;;;6.27;76.20;99242.29;216019;1315;22640;-76
2021/11/14 09:35:16;;;;;;;17.70;11.90;;;;;;;6.35;76.23;99246.36;216026;1310;24254;-77
2021/11/14 09:40:19;;;;;;;18.70;11.70;;;;;;;6.39;76.59;99248.91;215815;1317;24375;-76
2021/11/14 09:45:27;;;;;;;19.60;12.40;;;;;;;6.41;75.71;99248.83;215413;1318;24253;-76
2021/11/14 09:50:30;;;;;;;19.60;12.50;;;;;;;6.36;75.87;99248.98;215362;1312;22580;-76
2021/11/14 09:55:36;;;;;;;19.20;11.40;;;;;;;6.40;75.79;99251.14;215464;1310;22589;-77
2021/11/14 10:00:41;;;;;;;18.20;11.40;;;;;;;6.38;75.43;99256.98;215877;1317;24262;-76
2021/11/14 10:05:44;;;;;;;18.50;11.70;;;;;;;6.49;76.12;99259.60;215899;1318;23676;-76
2021/11/14 10:10:51;;;;;;;19.40;12.30;;;;;;;6.63;76.08;99261.09;215848;1315;22577;-76
2021/11/14 10:16:20;;;;;;;19.00;11.70;;;;;;;6.62;75.40;99263.69;215840;1314;24231;-74
2021/11/14 10:21:31;;;;;;;25.10;14.80;;;;;;;6.54;75.08;99263.86;215327;1314;25249;-76
2021/11/14 10:26:35;;;;;;;23.40;13.60;;;;;;;6.46;74.93;99270.91;215170;1313;24008;-76
2021/11/14 10:31:40;;;;;;;22.60;12.70;;;;;;;6.43;75.51;99272.57;215583;1316;25076;-77
2021/11/14 10:36:43;;;;;;;25.30;14.80;;;;;;;6.50;75.49;99274.11;215511;1316;24918;-77
2021/11/14 10:41:48;;;;;;;25.90;14.70;;;;;;;6.52;75.22;99280.14;215435;1317;24263;-76
2021/11/14 10:47:13;;;;;;;23.10;13.30;;;;;;;6.57;75.56;99277.85;215712;1310;22609;-76
2021/11/14 10:52:22;;;;;;;21.30;12.70;;;;;;;6.68;75.53;99285.84;215382;1317;25223;-76
2021/11/14 10:57:32;;;;;;;19.90;12.20;;;;;;;6.71;75.28;99285.77;215605;1317;25001;-76
2021/11/14 11:02:39;;;;;;;25.40;15.20;;;;;;;6.77;75.36;99284.30;215816;1313;25425;-77
2021/11/14 11:07:58;;;;;;;21.40;13.60;;;;;;;6.74;74.84;99285.54;215799;1316;22748;-76
2021/11/14 11:13:04;;;;;;;20.00;11.70;;;;;;;6.73;75.21;99285.59;215477;1316;24468;-76
2021/11/14 11:18:11;;;;;;;20.60;11.90;;;;;;;6.81;75.22;99280.44;216232;1315;22587;-76
2021/11/14 11:23:16;;;;;;;23.20;12.80;;;;;;;6.81;74.62;99281.47;215690;1313;22574;-76
2021/11/14 11:28:42;;;;;;;21.60;13.60;;;;;;;6.78;74.46;99282.81;216239;1315;22631;-76
2021/11/14 11:33:49;;;;;;;21.40;13.20;;;;;;;6.72;74.37;99286.80;216014;1314;24251;-76
2021/11/14 11:38:52;;;;;;;21.90;12.40;;;;;;;6.69;74.79;99293.05;215991;1314;22580;-76
2021/11/14 11:43:56;;;;;;;22.00;13.80;;;;;;;6.72;74.70;99291.86;215448;1310;24250;-77
2021/11/14 11:49:04;;;;;;;21.30;14.10;;;;;;;6.83;75.22;99291.23;215832;1315;23943;-76
2021/11/14 11:54:14;;;;;;;22.90;14.40;;;;;;;6.82;74.20;99296.61;216190;1314;22597;-77
2021/11/14 11:59:24;;;;;;;20.10;12.80;;;;;;;6.75;74.33;99300.83;216093;1308;23624;-76
2021/11/14 12:04:38;;;;;;;23.80;14.70;;;;;;;6.83;74.80;99301.34;216122;1314;23160;-75
2021/11/14 12:09:52;;;;;;;24.10;14.90;;;;;;;6.97;74.99;99302.34;216191;1314;24211;-76
2021/11/14 12:15:14;;;;;;;24.20;15.30;;;;;;;7.07;74.70;99309.79;215896;1316;24348;-76
2021/11/14 12:20:42;;;;;;;28.80;19.40;;;;;;;7.15;74.58;99307.20;215820;1315;22573;-76
2021/11/14 12:25:57;;;;;;;24.30;14.20;;;;;;;7.18;74.36;99310.31;215666;1310;25095;-77
2021/11/14 12:31:08;;;;;;;24.70;14.70;;;;;;;7.10;73.61;99308.43;215608;1315;24286;-76
2021/11/14 12:36:19;;;;;;;23.10;13.90;;;;;;;7.01;73.82;99316.98;215978;1316;24375;-77
2021/11/14 12:41:30;;;;;;;22.90;13.90;;;;;;;7.05;73.95;99319.46;215966;1313;22651;-78
2021/11/14 12:46:34;;;;;;;24.50;15.10;;;;;;;7.01;73.87;99322.36;216102;1314;24285;-78
2021/11/14 12:51:52;;;;;;;24.30;15.40;;;;;;;6.87;73.64;99317.15;215788;1314;24286;-77
2021/11/14 12:56:55;;;;;;;28.50;16.60;;;;;;;6.86;74.18;99321.04;215795;1314;25269;-78
2021/11/14 13:02:02;;;;;;;26.10;16.60;;;;;;;6.89;74.39;99330.06;215769;1310;24337;-78
2021/11/14 13:07:19;;;;;;;25.60;15.90;;;;;;;6.93;74.31;99336.29;215313;1316;249803;-77
2021/11/14 13:12:23;;;;;;;27.10;15.60;;;;;;;6.88;73.80;99336.71;216015;1314;23053;-78
2021/11/14 13:17:28;;;;;;;26.30;15.40;;;;;;;6.82;73.84;99340.90;216020;1310;23876;-77
2021/11/14 13:22:32;;;;;;;25.40;15.30;;;;;;;6.80;74.45;99345.30;216110;1310;24256;-77
2021/11/14 13:27:35;;;;;;;24.10;13.80;;;;;;;6.82;74.32;99345.45;215790;1310;22579;-76
2021/11/14 13:32:41;;;;;;;24.00;15.00;;;;;;;6.77;73.62;99343.77;216207;1316;24582;-76
2021/11/14 13:37:44;;;;;;;22.20;14.10;;;;;;;6.74;73.83;99346.88;216029;1310;24400;-76
2021/11/14 13:42:59;;;;;;;25.80;14.70;;;;;;;6.75;74.12;99349.04;215840;1316;24221;-77
2021/11/14 13:48:07;;;;;;;24.80;15.90;;;;;;;6.79;74.35;99352.73;215937;1313;22551;-77
2021/11/14 13:53:16;;;;;;;22.00;14.40;;;;;;;6.77;73.72;99358.54;216067;1314;24251;-76
2021/11/14 13:58:20;;;;;;;25.90;15.20;;;;;;;6.66;73.64;99369.16;215806;1310;24295;-76
2021/11/14 14:03:28;;;;;;;23.80;14.70;;;;;;;6.52;73.65;99368.61;215708;1313;25248;-76
2021/11/14 14:08:32;;;;;;;22.40;14.70;;;;;;;6.42;74.00;99372.33;215836;1316;22581;-76
2021/11/14 14:13:37;;;;;;;28.30;16.50;;;;;;;6.37;74.00;99376.45;216041;1316;22566;-76
2021/11/14 14:18:40;;;;;;;30.40;17.30;;;;;;;6.45;74.66;99378.38;215710;1310;25299;-76
2021/11/14 14:23:43;;;;;;;27.30;16.30;;;;;;;6.51;74.69;99380.30;216125;1316;24260;-76
2021/11/14 14:28:47;;;;;;;32.00;19.30;;;;;;;6.51;74.29;99386.65;215597;1314;25360;-76
2021/11/14 14:33:55;;;;;;;30.40;17.70;;;;;;;6.48;74.46;99388.22;216059;1314;24221;-76
2021/11/14 14:39:05;;;;;;;28.20;16.40;;;;;;;6.48;74.70;99394.98;215965;1314;25386;-76
2021/11/14 14:44:08;;;;;;;26.90;16.10;;;;;;;6.51;74.56;99399.38;215973;1316;23451;-76
2021/11/14 14:49:18;;;;;;;29.10;17.00;;;;;;;6.53;74.35;99409.45;215322;1317;25463;-75
2021/11/14 14:54:27;;;;;;;28.30;17.50;;;;;;;6.52;74.43;99414.14;215937;1316;25313;-76
2021/11/14 14:59:32;;;;;;;27.50;17.50;;;;;;;6.53;74.40;99423.25;215758;1316;22703;-76
2021/11/14 15:04:44;;;;;;;26.30;17.60;;;;;;;6.49;74.56;99422.40;215981;1314;24416;-75
2021/11/14 15:10:01;;;;;;;27.30;17.30;;;;;;;6.46;74.85;99425.48;215980;1316;24011;-76
2021/11/14 15:15:15;;;;;;;28.60;17.10;;;;;;;6.41;74.53;99429.20;215481;1316;22586;-76
2021/11/14 15:20:26;;;;;;;27.80;16.80;;;;;;;6.38;74.87;99437.73;215653;1315;22577;-77
2021/11/14 15:25:43;;;;;;;27.20;16.80;;;;;;;6.34;74.75;99439.06;216156;1315;22671;-76
2021/11/14 15:31:01;;;;;;;36.70;22.90;;;;;;;6.36;75.17;99453.20;215495;1314;24256;-76
2021/11/14 15:36:05;;;;;;;41.00;23.00;;;;;;;6.38;75.45;99460.67;215692;1316;22958;-77
2021/11/14 15:41:11;;;;;;;38.90;23.60;;;;;;;6.37;75.25;99460.55;215892;1310;22701;-76
2021/11/14 15:46:14;;;;;;;39.30;23.40;;;;;;;6.31;75.22;99464.30;215814;1316;24762;-76
2021/11/14 15:51:23;;;;;;;46.60;27.20;;;;;;;6.28;75.48;99474.89;216096;1316;24367;-76
2021/11/14 15:56:25;;;;;;;54.30;29.90;;;;;;;6.24;75.59;99483.08;215647;1316;26304;-76
2021/11/14 16:01:28;;;;;;;47.00;26.60;;;;;;;6.22;75.72;99489.63;216016;1315;22657;-76
2021/11/14 16:06:31;;;;;;;53.30;29.50;;;;;;;6.19;75.49;99492.63;215715;1316;22557;-76
2021/11/14 16:11:34;;;;;;;47.80;27.80;;;;;;;6.19;76.02;99496.57;216137;1316;24272;-76
2021/11/14 16:16:37;;;;;;;46.50;26.60;;;;;;;6.19;75.98;99504.72;215823;1314;24327;-77
2021/11/14 16:21:46;;;;;;;39.50;24.00;;;;;;;6.20;75.93;99505.80;215736;1315;25402;-74
2021/11/14 16:27:07;;;;;;;50.40;27.40;;;;;;;6.19;76.11;99512.27;215745;1310;25587;-77
2021/11/14 16:32:24;;;;;;;44.60;27.60;;;;;;;6.20;76.04;99512.70;215748;1316;25492;-76
2021/11/14 16:37:47;;;;;;;52.20;32.70;;;;;;;6.20;76.16;99522.30;215645;1313;24254;-76
2021/11/14 16:42:49;;;;;;;47.30;28.20;;;;;;;6.21;76.30;99521.50;215893;1316;24429;-77
2021/11/14 16:47:56;;;;;;;50.20;27.80;;;;;;;6.21;76.12;99524.70;215926;1316;23327;-77
2021/11/14 16:52:58;;;;;;;45.50;26.70;;;;;;;6.21;76.09;99534.88;215967;1316;25322;-76
2021/11/14 16:58:01;;;;;;;47.60;26.70;;;;;;;6.22;76.09;99536.41;216029;1309;22634;-75
2021/11/14 17:03:04;;;;;;;48.90;28.40;;;;;;;6.24;76.26;99537.63;216182;1310;24282;-76
2021/11/14 17:08:08;;;;;;;53.80;31.10;;;;;;;6.25;75.72;99537.22;216043;1315;24327;-76
2021/11/14 17:13:11;;;;;;;57.00;33.10;;;;;;;6.23;75.72;99543.67;216284;1310;22740;-77
2021/11/14 17:18:16;;;;;;;50.00;29.70;;;;;;;6.23;76.29;99548.09;216136;1310;23028;-77
2021/11/14 17:23:24;;;;;;;54.70;31.50;;;;;;;6.22;76.21;99552.12;215616;1313;22618;-76
2021/11/14 17:28:27;;;;;;;55.80;30.80;;;;;;;6.19;76.23;99552.06;215732;1316;22513;-76
2021/11/14 17:33:32;;;;;;;51.80;31.10;;;;;;;6.18;76.05;99562.48;215841;1313;22553;-76
2021/11/14 17:38:35;;;;;;;50.40;30.40;;;;;;;6.16;75.96;99566.66;215747;1316;22726;-76
2021/11/14 17:43:38;;;;;;;44.90;27.10;;;;;;;6.19;76.13;99570.12;216236;1316;26643;-76
2021/11/14 17:48:41;;;;;;;48.80;29.00;;;;;;;6.19;75.86;99571.38;215716;1309;24400;-76
2021/11/14 17:53:44;;;;;;;56.80;32.50;;;;;;;6.17;76.01;99578.39;215804;1316;22668;-77
2021/11/14 17:58:47;;;;;;;54.60;33.20;;;;;;;6.20;75.82;99584.43;215370;1316;24278;-77
2021/11/14 18:03:50;;;;;;;58.70;35.40;;;;;;;6.20;76.00;99587.86;215818;1314;22562;-76
2021/11/14 18:08:52;;;;;;;66.10;39.10;;;;;;;6.18;76.01;99592.27;215866;1316;24291;-76
2021/11/14 18:13:59;;;;;;;63.30;36.40;;;;;;;6.14;75.91;99604.77;215959;1315;24282;-76
2021/11/14 18:19:03;;;;;;;73.40;41.90;;;;;;;6.12;76.05;99611.70;216152;1310;24285;-76
2021/11/14 18:24:09;;;;;;;79.00;43.50;;;;;;;6.12;76.27;99609.52;216154;1310;24292;-76
2021/11/14 18:29:13;;;;;;;81.40;43.80;;;;;;;6.12;75.98;99606.01;215744;1316;24762;-77
2021/11/14 18:34:16;;;;;;;75.70;41.30;;;;;;;6.11;76.09;99608.96;216520;1316;24221;-77
2021/11/14 18:39:30;;;;;;;73.80;41.20;;;;;;;6.13;76.08;99613.95;215858;1310;24238;-76
2021/11/14 18:44:35;;;;;;;45.40;27.80;;;;;;;6.13;75.60;99611.14;215847;1314;22563;-76
2021/11/14 18:49:37;;;;;;;44.40;25.90;;;;;;;6.15;75.67;99612.81;216327;1315;24700;-77
2021/11/14 18:54:40;;;;;;;41.20;23.80;;;;;;;6.17;75.36;99619.28;215857;1314;24320;-76
2021/11/14 18:59:43;;;;;;;48.40;28.60;;;;;;;6.16;75.23;99616.60;216134;1316;22706;-77
2021/11/14 19:04:46;;;;;;;52.00;29.10;;;;;;;6.16;74.91;99616.73;215997;1310;24221;-76
2021/11/14 19:09:49;;;;;;;55.20;31.10;;;;;;;6.16;74.93;99620.77;216019;1316;22632;-76
2021/11/14 19:14:52;;;;;;;53.70;31.90;;;;;;;6.17;74.93;99619.08;215883;1316;22589;-77
2021/11/14 19:19:54;;;;;;;45.20;26.90;;;;;;;6.13;74.82;99623.42;216163;1316;24227;-77
2021/11/14 19:24:57;;;;;;;38.90;23.00;;;;;;;6.14;74.95;99619.39;215630;1317;24249;-76
2021/11/14 19:30:00;;;;;;;33.20;20.70;;;;;;;6.16;74.64;99627.73;215804;1316;22643;-77
2021/11/14 19:35:05;;;;;;;28.80;16.10;;;;;;;6.19;74.56;99639.27;216209;1316;22562;-76
2021/11/14 19:40:09;;;;;;;33.70;20.40;;;;;;;6.21;74.46;99640.34;215608;1315;24378;-77
2021/11/14 19:45:12;;;;;;;36.20;21.50;;;;;;;6.20;74.28;99637.60;215863;1316;25415;-77
2021/11/14 19:50:16;;;;;;;39.00;21.50;;;;;;;6.18;74.33;99633.63;216137;1317;22598;-76
2021/11/14 19:55:28;;;;;;;38.50;22.50;;;;;;;6.16;74.02;99635.66;216109;1316;25271;-77
2021/11/14 20:00:33;;;;;;;39.70;23.40;;;;;;;6.16;74.20;99638.70;216141;1316;23044;-76
2021/11/14 20:05:36;;;;;;;38.70;23.00;;;;;;;6.18;73.93;99639.14;215819;1316;24304;-77
2021/11/14 20:10:40;;;;;;;51.30;28.30;;;;;;;6.18;74.16;99648.63;215933;1316;23717;-76
2021/11/14 20:15:46;;;;;;;62.70;34.50;;;;;;;6.17;73.89;99651.48;215932;1317;22600;-77
2021/11/14 20:20:52;;;;;;;59.80;33.00;;;;;;;6.16;74.26;99649.66;215817;1317;22590;-78
2021/11/14 20:25:58;;;;;;;52.30;30.20;;;;;;;6.15;73.99;99648.52;215824;1316;24380;-76
2021/11/14 20:31:01;;;;;;;60.00;33.30;;;;;;;6.13;73.86;99655.13;216003;1315;22655;-77
2021/11/14 20:36:04;;;;;;;63.40;34.20;;;;;;;6.11;74.04;99654.89;216275;1310;23105;-76
2021/11/14 20:41:08;;;;;;;62.70;34.50;;;;;;;6.12;74.07;99655.66;215926;1316;22824;-77
2021/11/14 20:46:11;;;;;;;69.20;37.40;;;;;;;6.11;74.50;99657.27;215839;1316;23043;-76
2021/11/14 20:51:19;;;;;;;71.60;38.60;;;;;;;6.10;74.11;99659.86;215924;1316;22824;-76
2021/11/14 20:56:21;;;;;;;76.30;41.00;;;;;;;6.10;74.20;99662.25;215843;1314;24320;-76
2021/11/14 21:01:26;;;;;;;73.00;40.20;;;;;;;6.10;74.68;99661.30;216015;1316;23296;-76
2021/11/14 21:06:29;;;;;;;59.80;35.20;;;;;;;6.12;74.27;99665.08;215954;1316;22605;-76
2021/11/14 21:11:32;;;;;;;68.80;37.10;;;;;;;6.11;74.15;99664.67;216019;1315;166537;-75
2021/11/14 21:16:38;;;;;;;64.40;35.50;;;;;;;6.06;74.18;99673.13;216054;1316;24234;-76
2021/11/14 21:21:41;;;;;;;63.20;34.90;;;;;;;6.05;74.54;99675.45;216137;1316;22773;-76
2021/11/14 21:26:44;;;;;;;63.80;35.50;;;;;;;6.03;74.40;99674.84;215864;1314;22745;-76
2021/11/14 21:31:49;;;;;;;64.20;34.10;;;;;;;6.05;74.91;99676.41;215839;1316;25249;-76
2021/11/14 21:42:14;;;;;;;67.40;38.20;;;;;;;6.03;74.79;99682.54;216463;1316;24356;-78
2021/11/14 21:47:17;;;;;;;65.20;35.90;;;;;;;6.01;75.04;99688.04;215765;1316;24282;-76
2021/11/14 21:52:20;;;;;;;68.20;37.60;;;;;;;6.02;75.27;99691.63;216202;1316;24256;-76
2021/11/14 21:57:23;;;;;;;62.70;33.00;;;;;;;6.03;75.15;99695.33;216138;1310;24648;-76
2021/11/14 22:02:27;;;;;;;67.40;37.70;;;;;;;6.02;75.21;99697.15;215854;1316;24256;-76
2021/11/14 22:07:32;;;;;;;58.50;33.10;;;;;;;6.03;75.52;99702.88;215788;1316;22598;-76
2021/11/14 22:12:43;;;;;;;69.70;38.60;;;;;;;5.99;75.26;99699.33;216196;1316;25386;-75
2021/11/14 22:17:47;;;;;;;59.80;33.10;;;;;;;6.00;75.55;99703.27;215914;1316;24188;-76
2021/11/14 22:22:53;;;;;;;68.70;38.90;;;;;;;6.02;75.78;99712.97;216507;1316;22502;-75
2021/11/14 22:27:56;;;;;;;68.70;37.30;;;;;;;6.05;75.84;99710.77;215728;1316;25259;-76
2021/11/14 22:32:59;;;;;;;70.70;37.50;;;;;;;6.04;76.03;99714.80;215872;1316;24474;-76
2021/11/14 22:38:05;;;;;;;73.00;39.20;;;;;;;6.03;76.04;99720.84;215795;1314;24307;-77
2021/11/14 22:43:09;;;;;;;78.20;41.00;;;;;;;6.01;75.90;99717.79;215878;1316;24274;-76
2021/11/14 22:48:24;;;;;;;76.90;41.00;;;;;;;6.00;76.21;99712.33;216279;1316;24231;-76
2021/11/14 22:53:31;;;;;;;88.50;44.20;;;;;;;6.00;76.68;99718.51;215963;1313;24600;-76
2021/11/14 22:58:42;;;;;;;96.80;48.00;;;;;;;6.02;76.31;99719.71;215689;1319;23751;-76
2021/11/14 23:03:55;;;;;;;94.20;46.30;;;;;;;6.04;76.64;99726.29;216083;1317;24263;-78
2021/11/14 23:09:02;;;;;;;95.70;45.50;;;;;;;6.05;76.70;99727.34;216303;1316;23644;-76
2021/11/14 23:14:25;;;;;;;90.70;47.00;;;;;;;6.04;76.75;99728.91;216288;1314;24380;-76
2021/11/14 23:19:28;;;;;;;83.40;42.70;;;;;;;6.06;77.12;99725.70;216165;1316;25326;-76
2021/11/14 23:24:31;;;;;;;75.90;38.50;;;;;;;6.07;77.15;99723.73;216041;1316;23789;-76
2021/11/14 23:29:34;;;;;;;73.90;40.50;;;;;;;6.04;77.09;99722.94;216028;1316;22566;-76
2021/11/14 23:34:37;;;;;;;77.90;42.10;;;;;;;6.01;77.17;99719.27;215759;1315;24270;-76